sensor_id;sensor_type;location;lat;lon;timestamp;pressure;altitude;pressure_sealevel;temperature;humidity
41140;BME280;26881;48.784;9.192;2023-03-23T00:01:16;98025.94;;;13.97;52.32
41140;BME280;26881;48.784;9.192;2023-03-23T00:06:40;98028.69;;;13.95;52.81
41140;BME280;26881;48.784;9.192;2023-03-23T00:12:00;98028.50;;;13.87;52.66
41140;BME280;26881;48.784;9.192;2023-03-23T00:17:26;98022.00;;;13.91;52.20
41140;BME280;26881;48.784;9.192;2023-03-23T00:22:47;98022.25;;;13.88;52.50
41140;BME280;26881;48.784;9.192;2023-03-23T00:28:08;98010.53;;;13.92;51.74
41140;BME280;26881;48.784;9.192;2023-03-23T00:33:34;98008.09;;;14.00;51.29
41140;BME280;26881;48.784;9.192;2023-03-23T00:38:58;98000.00;;;14.03;51.17
41140;BME280;26881;48.784;9.192;2023-03-23T00:44:20;97997.22;;;14.05;51.28
41140;BME280;26881;48.784;9.192;2023-03-23T00:49:44;97987.53;;;14.05;51.89
41140;BME280;26881;48.784;9.192;2023-03-23T00:55:05;97981.69;;;14.02;51.77
41140;BME280;26881;48.784;9.192;2023-03-23T01:00:26;97976.00;;;13.97;52.14
41140;BME280;26881;48.784;9.192;2023-03-23T01:05:47;97972.72;;;14.04;51.31
41140;BME280;26881;48.784;9.192;2023-03-23T01:11:07;97973.69;;;14.03;51.47
41140;BME280;26881;48.784;9.192;2023-03-23T01:16:28;97970.09;;;14.04;50.97
41140;BME280;26881;48.784;9.192;2023-03-23T01:21:49;97971.31;;;14.00;52.34
41140;BME280;26881;48.784;9.192;2023-03-23T01:27:10;97962.59;;;14.00;50.48
41140;BME280;26881;48.784;9.192;2023-03-23T01:32:31;97941.56;;;14.00;50.72
41140;BME280;26881;48.784;9.192;2023-03-23T01:37:52;97943.84;;;13.93;51.43
41140;BME280;26881;48.784;9.192;2023-03-23T01:43:14;97931.41;;;13.95;51.05
41140;BME280;26881;48.784;9.192;2023-03-23T01:48:37;97926.38;;;14.03;50.63
41140;BME280;26881;48.784;9.192;2023-03-23T01:54:01;97935.47;;;13.99;51.21
41140;BME280;26881;48.784;9.192;2023-03-23T01:59:23;97919.69;;;13.99;50.91
41140;BME280;26881;48.784;9.192;2023-03-23T02:04:46;97936.22;;;13.90;51.84
41140;BME280;26881;48.784;9.192;2023-03-23T02:10:07;97934.53;;;13.89;51.45
41140;BME280;26881;48.784;9.192;2023-03-23T02:15:35;97933.00;;;13.86;51.02
41140;BME280;26881;48.784;9.192;2023-03-23T02:21:34;97929.22;;;13.79;51.64
41140;BME280;26881;48.784;9.192;2023-03-23T02:27:17;97925.38;;;13.83;51.51
41140;BME280;26881;48.784;9.192;2023-03-23T02:33:04;97920.25;;;13.82;52.04
41140;BME280;26881;48.784;9.192;2023-03-23T02:38:39;97905.63;;;13.89;51.32
41140;BME280;26881;48.784;9.192;2023-03-23T02:44:03;97891.66;;;13.88;52.12
41140;BME280;26881;48.784;9.192;2023-03-23T02:49:27;97886.06;;;13.82;52.09
41140;BME280;26881;48.784;9.192;2023-03-23T02:54:49;97890.56;;;13.70;53.33
41140;BME280;26881;48.784;9.192;2023-03-23T03:00:14;97887.09;;;13.69;53.03
41140;BME280;26881;48.784;9.192;2023-03-23T03:11:20;97872.50;;;13.77;52.72
41140;BME280;26881;48.784;9.192;2023-03-23T03:16:57;97860.31;;;13.76;53.21
41140;BME280;26881;48.784;9.192;2023-03-23T03:22:21;97870.84;;;13.76;52.90
41140;BME280;26881;48.784;9.192;2023-03-23T03:27:44;97862.47;;;13.70;53.65
41140;BME280;26881;48.784;9.192;2023-03-23T03:33:06;97864.66;;;13.65;54.27
41140;BME280;26881;48.784;9.192;2023-03-23T03:38:27;97863.72;;;13.66;53.89
41140;BME280;26881;48.784;9.192;2023-03-23T03:43:48;97862.63;;;13.69;53.88
41140;BME280;26881;48.784;9.192;2023-03-23T03:49:10;97872.31;;;13.68;53.88
41140;BME280;26881;48.784;9.192;2023-03-23T03:54:32;97860.56;;;13.73;53.60
41140;BME280;26881;48.784;9.192;2023-03-23T03:59:53;97847.81;;;13.68;53.44
41140;BME280;26881;48.784;9.192;2023-03-23T04:05:14;97848.44;;;13.60;54.41
41140;BME280;26881;48.784;9.192;2023-03-23T04:10:34;97845.81;;;13.60;54.90
41140;BME280;26881;48.784;9.192;2023-03-23T04:15:55;97855.13;;;13.64;54.61
41140;BME280;26881;48.784;9.192;2023-03-23T04:21:16;97857.75;;;13.64;54.44
41140;BME280;26881;48.784;9.192;2023-03-23T04:26:37;97858.31;;;13.68;54.18
41140;BME280;26881;48.784;9.192;2023-03-23T04:32:00;97861.09;;;13.66;54.82
41140;BME280;26881;48.784;9.192;2023-03-23T04:37:22;97863.00;;;13.64;55.55
41140;BME280;26881;48.784;9.192;2023-03-23T04:42:46;97855.56;;;13.69;54.75
41140;BME280;26881;48.784;9.192;2023-03-23T04:48:08;97855.06;;;13.76;54.81
41140;BME280;26881;48.784;9.192;2023-03-23T04:53:29;97845.78;;;13.72;55.09
41140;BME280;26881;48.784;9.192;2023-03-23T04:58:50;97858.09;;;13.71;55.28
41140;BME280;26881;48.784;9.192;2023-03-23T05:04:11;97863.66;;;13.78;54.50
41140;BME280;26881;48.784;9.192;2023-03-23T05:09:37;97858.25;;;13.79;55.08
41140;BME280;26881;48.784;9.192;2023-03-23T05:14:57;97845.13;;;13.79;54.90
41140;BME280;26881;48.784;9.192;2023-03-23T05:20:18;97847.75;;;13.79;55.04
41140;BME280;26881;48.784;9.192;2023-03-23T05:25:40;97847.75;;;13.79;54.95
41140;BME280;26881;48.784;9.192;2023-03-23T05:31:01;97842.50;;;13.79;55.06
41140;BME280;26881;48.784;9.192;2023-03-23T05:36:22;97854.09;;;13.77;55.64
41140;BME280;26881;48.784;9.192;2023-03-23T05:41:44;97840.84;;;13.78;55.98
41140;BME280;26881;48.784;9.192;2023-03-23T05:47:06;97845.00;;;13.81;55.35
41140;BME280;26881;48.784;9.192;2023-03-23T05:52:26;97845.56;;;13.84;55.43
41140;BME280;26881;48.784;9.192;2023-03-23T05:57:47;97853.22;;;13.87;55.83
41140;BME280;26881;48.784;9.192;2023-03-23T06:03:08;97862.25;;;13.95;55.59
41140;BME280;26881;48.784;9.192;2023-03-23T06:08:29;97875.13;;;13.98;55.58
41140;BME280;26881;48.784;9.192;2023-03-23T06:13:50;97879.56;;;13.97;55.44
41140;BME280;26881;48.784;9.192;2023-03-23T06:19:11;97884.16;;;14.05;54.70
41140;BME280;26881;48.784;9.192;2023-03-23T06:24:32;97901.84;;;14.03;55.56
41140;BME280;26881;48.784;9.192;2023-03-23T06:29:54;97907.69;;;14.06;54.92
41140;BME280;26881;48.784;9.192;2023-03-23T06:35:16;97906.88;;;14.06;55.84
41140;BME280;26881;48.784;9.192;2023-03-23T06:40:37;97913.41;;;14.11;55.22
41140;BME280;26881;48.784;9.192;2023-03-23T06:45:59;97912.56;;;14.11;54.69
41140;BME280;26881;48.784;9.192;2023-03-23T06:51:21;97915.75;;;14.15;54.57
41140;BME280;26881;48.784;9.192;2023-03-23T06:56:42;97908.47;;;14.18;54.65
41140;BME280;26881;48.784;9.192;2023-03-23T07:02:02;97925.97;;;14.29;54.59
41140;BME280;26881;48.784;9.192;2023-03-23T07:07:23;97933.22;;;14.37;54.60
41140;BME280;26881;48.784;9.192;2023-03-23T07:12:44;97924.94;;;14.41;54.93
41140;BME280;26881;48.784;9.192;2023-03-23T07:18:04;97926.72;;;14.41;54.66
41140;BME280;26881;48.784;9.192;2023-03-23T07:23:25;97932.81;;;14.41;54.78
41140;BME280;26881;48.784;9.192;2023-03-23T07:28:46;97948.16;;;14.36;56.09
41140;BME280;26881;48.784;9.192;2023-03-23T07:34:07;97962.41;;;14.33;55.84
41140;BME280;26881;48.784;9.192;2023-03-23T07:39:28;97976.84;;;14.39;55.61
41140;BME280;26881;48.784;9.192;2023-03-23T07:44:49;97979.63;;;14.47;54.94
41140;BME280;26881;48.784;9.192;2023-03-23T07:50:10;97980.56;;;14.58;54.97
41140;BME280;26881;48.784;9.192;2023-03-23T07:55:32;97971.06;;;14.66;54.93
41140;BME280;26881;48.784;9.192;2023-03-23T08:00:55;97977.50;;;14.83;53.71
41140;BME280;26881;48.784;9.192;2023-03-23T08:06:17;97963.56;;;14.92;53.72
41140;BME280;26881;48.784;9.192;2023-03-23T08:11:38;97990.31;;;14.98;53.56
41140;BME280;26881;48.784;9.192;2023-03-23T08:16:59;97997.81;;;15.02;53.78
41140;BME280;26881;48.784;9.192;2023-03-23T08:22:20;97983.56;;;15.05;54.13
41140;BME280;26881;48.784;9.192;2023-03-23T08:27:41;97990.47;;;15.06;54.38
41140;BME280;26881;48.784;9.192;2023-03-23T08:33:05;98005.03;;;15.10;54.98
41140;BME280;26881;48.784;9.192;2023-03-23T08:38:26;97997.31;;;15.08;55.45
41140;BME280;26881;48.784;9.192;2023-03-23T08:43:48;98002.41;;;15.10;55.36
41140;BME280;26881;48.784;9.192;2023-03-23T08:49:08;98006.84;;;15.09;56.11
41140;BME280;26881;48.784;9.192;2023-03-23T08:54:29;98012.00;;;15.11;56.19
41140;BME280;26881;48.784;9.192;2023-03-23T08:59:53;98028.91;;;15.08;56.73
41140;BME280;26881;48.784;9.192;2023-03-23T09:05:23;98031.25;;;15.11;57.02
41140;BME280;26881;48.784;9.192;2023-03-23T09:10:44;98028.50;;;15.13;56.19
41140;BME280;26881;48.784;9.192;2023-03-23T09:16:06;98035.84;;;15.19;57.02
41140;BME280;26881;48.784;9.192;2023-03-23T09:21:28;98049.75;;;15.21;56.67
41140;BME280;26881;48.784;9.192;2023-03-23T09:26:49;98044.19;;;15.24;56.96
41140;BME280;26881;48.784;9.192;2023-03-23T09:32:10;98059.47;;;15.30;57.06
41140;BME280;26881;48.784;9.192;2023-03-23T09:37:30;98060.06;;;15.34;55.97
41140;BME280;26881;48.784;9.192;2023-03-23T09:59:36;98063.25;;;15.37;55.88
41140;BME280;26881;48.784;9.192;2023-03-23T10:05:17;98064.53;;;15.43;55.79
41140;BME280;26881;48.784;9.192;2023-03-23T10:11:07;98076.31;;;15.49;56.25
41140;BME280;26881;48.784;9.192;2023-03-23T10:16:42;98082.03;;;15.54;56.02
41140;BME280;26881;48.784;9.192;2023-03-23T10:22:10;98071.22;;;15.57;56.12
41140;BME280;26881;48.784;9.192;2023-03-23T10:28:04;98079.66;;;15.51;56.51
41140;BME280;26881;48.784;9.192;2023-03-23T10:33:37;98092.44;;;15.55;56.48
41140;BME280;26881;48.784;9.192;2023-03-23T10:39:11;98082.59;;;15.57;56.67
41140;BME280;26881;48.784;9.192;2023-03-23T10:44:33;98085.09;;;15.59;56.67
41140;BME280;26881;48.784;9.192;2023-03-23T10:49:57;98094.69;;;15.60;57.16
41140;BME280;26881;48.784;9.192;2023-03-23T10:55:23;98090.25;;;15.60;57.07
41140;BME280;26881;48.784;9.192;2023-03-23T11:00:46;98098.97;;;15.61;57.24
41140;BME280;26881;48.784;9.192;2023-03-23T11:06:18;98079.75;;;15.70;57.16
41140;BME280;26881;48.784;9.192;2023-03-23T11:11:42;98082.41;;;15.80;56.97
41140;BME280;26881;48.784;9.192;2023-03-23T11:17:05;98074.38;;;15.82;57.55
41140;BME280;26881;48.784;9.192;2023-03-23T11:22:32;98075.19;;;15.82;56.77
41140;BME280;26881;48.784;9.192;2023-03-23T11:27:53;98068.38;;;15.79;57.29
41140;BME280;26881;48.784;9.192;2023-03-23T11:33:14;98079.63;;;15.82;57.77
41140;BME280;26881;48.784;9.192;2023-03-23T11:38:36;98064.50;;;15.84;57.42
41140;BME280;26881;48.784;9.192;2023-03-23T11:43:57;98053.44;;;15.90;57.02
41140;BME280;26881;48.784;9.192;2023-03-23T11:49:25;98053.44;;;15.99;56.81
41140;BME280;26881;48.784;9.192;2023-03-23T11:54:55;98055.91;;;16.01;57.34
41140;BME280;26881;48.784;9.192;2023-03-23T12:00:19;98054.81;;;16.04;56.68
41140;BME280;26881;48.784;9.192;2023-03-23T12:17:11;98040.25;;;16.19;54.16
41140;BME280;26881;48.784;9.192;2023-03-23T12:22:52;98036.63;;;16.20;53.09
41140;BME280;26881;48.784;9.192;2023-03-23T12:28:21;98034.25;;;16.27;53.12
41140;BME280;26881;48.784;9.192;2023-03-23T12:56:33;98018.53;;;16.54;52.36
41140;BME280;26881;48.784;9.192;2023-03-23T13:02:01;98018.53;;;16.54;52.50
41140;BME280;26881;48.784;9.192;2023-03-23T13:07:33;98013.97;;;16.47;53.21
41140;BME280;26881;48.784;9.192;2023-03-23T13:12:57;98002.44;;;16.48;53.91
41140;BME280;26881;48.784;9.192;2023-03-23T13:23:49;97988.69;;;16.44;53.72
41140;BME280;26881;48.784;9.192;2023-03-23T13:29:14;97975.50;;;16.44;53.48
41140;BME280;26881;48.784;9.192;2023-03-23T13:34:39;97980.63;;;16.46;54.02
41140;BME280;26881;48.784;9.192;2023-03-23T13:51:00;97957.13;;;16.52;53.91
41140;BME280;26881;48.784;9.192;2023-03-23T14:02:35;97948.53;;;16.50;52.64
41140;BME280;26881;48.784;9.192;2023-03-23T14:13:58;97938.25;;;16.47;52.57
41140;BME280;26881;48.784;9.192;2023-03-23T14:19:25;97929.38;;;16.48;53.02
41140;BME280;26881;48.784;9.192;2023-03-23T14:24:49;97919.47;;;16.50;52.92
41140;BME280;26881;48.784;9.192;2023-03-23T14:30:17;97916.56;;;16.53;52.83
41140;BME280;26881;48.784;9.192;2023-03-23T14:35:41;97915.44;;;16.56;50.64
41140;BME280;26881;48.784;9.192;2023-03-23T14:41:04;97915.44;;;16.56;50.62
41140;BME280;26881;48.784;9.192;2023-03-23T14:46:26;97912.69;;;16.57;50.61
41140;BME280;26881;48.784;9.192;2023-03-23T14:51:51;97921.44;;;16.58;50.80
41140;BME280;26881;48.784;9.192;2023-03-23T14:57:28;97918.19;;;16.64;50.13
41140;BME280;26881;48.784;9.192;2023-03-23T15:02:53;97928.91;;;16.62;50.18
41140;BME280;26881;48.784;9.192;2023-03-23T15:08:20;97911.25;;;16.63;49.55
41140;BME280;26881;48.784;9.192;2023-03-23T15:13:47;97924.59;;;16.61;49.94
41140;BME280;26881;48.784;9.192;2023-03-23T15:19:17;97920.00;;;16.63;49.58
41140;BME280;26881;48.784;9.192;2023-03-23T15:24:40;97915.41;;;16.65;48.74
41140;BME280;26881;48.784;9.192;2023-03-23T15:35:48;97919.03;;;16.64;48.84
41140;BME280;26881;48.784;9.192;2023-03-23T15:41:23;97920.00;;;16.63;48.41
41140;BME280;26881;48.784;9.192;2023-03-23T15:46:52;97925.88;;;16.57;47.97
41140;BME280;26881;48.784;9.192;2023-03-23T15:52:14;97918.63;;;16.59;47.80
41140;BME280;26881;48.784;9.192;2023-03-23T15:57:35;97917.38;;;16.63;47.71
41140;BME280;26881;48.784;9.192;2023-03-23T16:03:00;97909.75;;;16.60;47.70
41140;BME280;26881;48.784;9.192;2023-03-23T16:08:22;97914.59;;;16.65;47.60
41140;BME280;26881;48.784;9.192;2023-03-23T16:13:44;97912.69;;;16.57;48.02
41140;BME280;26881;48.784;9.192;2023-03-23T16:19:08;97914.19;;;16.50;48.24
41140;BME280;26881;48.784;9.192;2023-03-23T16:24:31;97930.47;;;16.55;48.19
41140;BME280;26881;48.784;9.192;2023-03-23T16:29:53;97932.97;;;16.47;48.66
41140;BME280;26881;48.784;9.192;2023-03-23T16:35:25;97927.69;;;16.47;48.55
41140;BME280;26881;48.784;9.192;2023-03-23T16:40:46;97942.44;;;16.40;48.86
41140;BME280;26881;48.784;9.192;2023-03-23T16:46:09;97943.88;;;16.34;49.75
41140;BME280;26881;48.784;9.192;2023-03-23T16:51:32;97946.63;;;16.33;49.66
41140;BME280;26881;48.784;9.192;2023-03-23T16:56:54;97949.56;;;16.30;50.14
41140;BME280;26881;48.784;9.192;2023-03-23T17:02:16;97949.81;;;16.27;50.18
41140;BME280;26881;48.784;9.192;2023-03-23T17:07:39;97940.69;;;16.21;50.64
41140;BME280;26881;48.784;9.192;2023-03-23T17:13:01;97924.16;;;16.19;50.55
41140;BME280;26881;48.784;9.192;2023-03-23T17:18:23;97920.28;;;16.13;51.28
41140;BME280;26881;48.784;9.192;2023-03-23T17:23:45;97911.41;;;16.14;50.75
41140;BME280;26881;48.784;9.192;2023-03-23T17:29:07;97917.22;;;16.08;51.41
41140;BME280;26881;48.784;9.192;2023-03-23T17:34:29;97922.91;;;16.04;52.15
41140;BME280;26881;48.784;9.192;2023-03-23T17:39:51;97916.81;;;16.03;51.79
41140;BME280;26881;48.784;9.192;2023-03-23T17:45:13;97921.84;;;16.06;51.70
41140;BME280;26881;48.784;9.192;2023-03-23T17:50:35;97917.50;;;16.05;51.47
41140;BME280;26881;48.784;9.192;2023-03-23T17:55:57;97914.19;;;16.03;52.00
41140;BME280;26881;48.784;9.192;2023-03-23T18:01:19;97921.97;;;15.95;52.74
41140;BME280;26881;48.784;9.192;2023-03-23T18:06:41;97927.53;;;15.92;52.87
41140;BME280;26881;48.784;9.192;2023-03-23T18:12:04;97926.41;;;15.85;53.68
41140;BME280;26881;48.784;9.192;2023-03-23T18:17:26;97920.59;;;15.81;53.55
41140;BME280;26881;48.784;9.192;2023-03-23T18:22:48;97924.47;;;15.87;53.03
41140;BME280;26881;48.784;9.192;2023-03-23T18:28:10;97924.34;;;15.88;52.92
41140;BME280;26881;48.784;9.192;2023-03-23T18:33:32;97921.84;;;15.87;53.31
41140;BME280;26881;48.784;9.192;2023-03-23T18:38:56;97916.88;;;15.74;54.43
41140;BME280;26881;48.784;9.192;2023-03-23T18:44:17;97917.81;;;15.83;53.77
41140;BME280;26881;48.784;9.192;2023-03-23T18:49:39;97917.81;;;15.83;53.61
41140;BME280;26881;48.784;9.192;2023-03-23T18:55:01;97915.19;;;15.73;54.67
41140;BME280;26881;48.784;9.192;2023-03-23T19:00:23;97921.44;;;15.72;54.74
41140;BME280;26881;48.784;9.192;2023-03-23T19:05:45;97937.50;;;15.69;54.51
41140;BME280;26881;48.784;9.192;2023-03-23T19:11:07;97936.16;;;15.74;54.61
41140;BME280;26881;48.784;9.192;2023-03-23T19:16:31;97942.13;;;15.76;54.39
41140;BME280;26881;48.784;9.192;2023-03-23T19:21:55;97940.97;;;15.69;54.54
41140;BME280;26881;48.784;9.192;2023-03-23T19:27:17;97931.56;;;15.76;53.96
41140;BME280;26881;48.784;9.192;2023-03-23T19:32:41;97936.84;;;15.76;53.94
41140;BME280;26881;48.784;9.192;2023-03-23T19:38:03;97938.09;;;15.72;54.47
41140;BME280;26881;48.784;9.192;2023-03-23T19:43:25;97945.03;;;15.73;54.20
41140;BME280;26881;48.784;9.192;2023-03-23T19:48:48;97940.41;;;15.66;55.10
41140;BME280;26881;48.784;9.192;2023-03-23T19:54:10;97936.78;;;15.57;55.73
41140;BME280;26881;48.784;9.192;2023-03-23T19:59:33;97936.53;;;15.50;56.38
41140;BME280;26881;48.784;9.192;2023-03-23T20:04:55;97940.94;;;15.50;56.01
41140;BME280;26881;48.784;9.192;2023-03-23T20:10:18;97933.88;;;15.50;56.07
41140;BME280;26881;48.784;9.192;2023-03-23T20:15:43;97930.41;;;15.40;56.47
41140;BME280;26881;48.784;9.192;2023-03-23T20:21:14;97928.03;;;15.47;56.49
41140;BME280;26881;48.784;9.192;2023-03-23T20:26:42;97924.28;;;15.39;57.08
41140;BME280;26881;48.784;9.192;2023-03-23T20:32:04;97921.78;;;15.38;56.90
41140;BME280;26881;48.784;9.192;2023-03-23T20:37:28;97918.31;;;15.37;57.17
41140;BME280;26881;48.784;9.192;2023-03-23T20:42:51;97908.06;;;15.34;57.68
41140;BME280;26881;48.784;9.192;2023-03-23T20:48:15;97910.28;;;15.29;57.23
41140;BME280;26881;48.784;9.192;2023-03-23T20:53:37;97896.66;;;15.24;57.74
41140;BME280;26881;48.784;9.192;2023-03-23T20:59:00;97904.72;;;15.23;57.86
41140;BME280;26881;48.784;9.192;2023-03-23T21:04:24;97897.75;;;15.12;58.29
41140;BME280;26881;48.784;9.192;2023-03-23T21:09:48;97898.03;;;15.09;58.25
41140;BME280;26881;48.784;9.192;2023-03-23T21:15:11;97894.00;;;15.05;59.19
41140;BME280;26881;48.784;9.192;2023-03-23T21:20:33;97889.44;;;15.07;58.64
41140;BME280;26881;48.784;9.192;2023-03-23T21:26:00;97887.75;;;15.06;58.43
41140;BME280;26881;48.784;9.192;2023-03-23T21:31:22;97881.94;;;15.02;58.83
41140;BME280;26881;48.784;9.192;2023-03-23T21:36:46;97868.66;;;15.04;58.70
41140;BME280;26881;48.784;9.192;2023-03-23T21:42:07;97859.63;;;14.96;59.18
41140;BME280;26881;48.784;9.192;2023-03-23T21:47:29;97853.66;;;14.94;59.21
41140;BME280;26881;48.784;9.192;2023-03-23T21:52:51;97847.31;;;14.97;59.54
41140;BME280;26881;48.784;9.192;2023-03-23T21:58:14;97840.75;;;14.91;59.81
41140;BME280;26881;48.784;9.192;2023-03-23T22:03:36;97829.97;;;14.94;58.54
41140;BME280;26881;48.784;9.192;2023-03-23T22:09:00;97821.09;;;14.95;58.89
41140;BME280;26881;48.784;9.192;2023-03-23T22:14:22;97809.16;;;14.91;58.70
41140;BME280;26881;48.784;9.192;2023-03-23T22:19:44;97800.72;;;14.88;58.67
41140;BME280;26881;48.784;9.192;2023-03-23T22:25:06;97795.16;;;14.81;59.00
41140;BME280;26881;48.784;9.192;2023-03-23T22:30:30;97781.00;;;14.72;59.82
41140;BME280;26881;48.784;9.192;2023-03-23T22:35:53;97768.13;;;14.69;59.88
41140;BME280;26881;48.784;9.192;2023-03-23T22:41:21;97740.72;;;14.72;59.86
41140;BME280;26881;48.784;9.192;2023-03-23T22:46:44;97741.69;;;14.71;59.09
41140;BME280;26881;48.784;9.192;2023-03-23T22:52:06;97740.41;;;14.65;60.02
41140;BME280;26881;48.784;9.192;2023-03-23T22:57:28;97741.53;;;14.63;60.87
41140;BME280;26881;48.784;9.192;2023-03-23T23:02:51;97725.03;;;14.61;61.24
41140;BME280;26881;48.784;9.192;2023-03-23T23:08:13;97739.19;;;14.60;61.06
41140;BME280;26881;48.784;9.192;2023-03-23T23:13:39;97743.03;;;14.56;61.58
41140;BME280;26881;48.784;9.192;2023-03-23T23:19:01;97742.31;;;14.53;62.02
41140;BME280;26881;48.784;9.192;2023-03-23T23:24:23;97741.06;;;14.48;62.61
41140;BME280;26881;48.784;9.192;2023-03-23T23:29:47;97745.75;;;14.44;62.22
41140;BME280;26881;48.784;9.192;2023-03-23T23:35:11;97750.72;;;14.47;62.50
41140;BME280;26881;48.784;9.192;2023-03-23T23:40:34;97758.22;;;14.52;62.10
41140;BME280;26881;48.784;9.192;2023-03-23T23:45:56;97789.78;;;14.42;65.40
41140;BME280;26881;48.784;9.192;2023-03-23T23:51:18;97775.88;;;14.21;69.61
41140;BME280;26881;48.784;9.192;2023-03-23T23:56:39;97745.84;;;14.23;70.40
